American Strong — WDJ3172 — position and weather

sailwx.info

Track history (hours):
 
Tides and Currents Weather Stations Pressure Air Temp Water Temp Dewpoint Dewpoint Depression Visibility Wind Speed Wind Dir Waves Ship Positions

American Strong

Owner: American Commercial Lines LLC, Jeffersonville, IN. More information available from US FCC via Universal Licensing System and Coast Guard Vessel Documentation Center.

Last reported at 2018-May-24 17:15 UTC. Time now 2018-May-25 05:24 UTC.
Position N 29°34' W 090°32'.

Length 26 m; draft 3.1 m.

Type: Towing. MMSI: 367765490.

Date/timePositionNaut miles runAvg speedWind from/ knotsBaromVisibWave heightAir tempDewpointWater temp
2018-May-24 17:15N 29°34' W 090°32'1 5.1
2018-May-24 17:00N 29°34' W 090°34'2 4.8
2018-May-24 16:30N 29°35' W 090°37'3 5.1
2018-May-24 16:00N 29°36' W 090°39'2 4.7
2018-May-24 15:30N 29°37' W 090°42'2 3.4
2018-May-24 15:00N 29°35' W 090°43'2 4.0
2018-May-24 14:30N 29°34' W 090°44'2 4.1
2018-May-24 14:00N 29°32' W 090°46'3 6.1
2018-May-24 13:30N 29°32' W 090°49'66 4.1
2018-May-23 21:37N 29°49' W 092°02'1 5.2
2018-May-23 21:29N 29°49' W 092°03'3 5.4
2018-May-23 21:01N 29°48' W 092°06'3 5.3
2018-May-23 20:31N 29°47' W 092°09'2 4.6
2018-May-23 19:59N 29°47' W 092°12'1 1.8
2018-May-23 19:30N 29°47' W 092°13'1 2.4
2018-May-23 19:01N 29°48' W 092°14'1 2.3
2018-May-23 18:30N 29°48' W 092°15'2 4.5
2018-May-23 18:01N 29°49' W 092°17'2 4.3
2018-May-23 17:31N 29°50' W 092°19'3 4.2
2018-May-23 16:45N 29°52' W 092°22'1 4.5
2018-May-23 16:27N 29°53' W 092°24'2 4.7
2018-May-23 15:58N 29°53' W 092°26'39 3.1
2018-May-23 03:30N 29°57' W 093°10'1 3.0
2018-May-23 03:00N 29°58' W 093°12'2 3.1
2018-May-23 02:30N 29°59' W 093°13'2 3.7
2018-May-23 02:00N 30°01' W 093°14'2 3.1
2018-May-23 01:30N 30°02' W 093°15'2 3.2
2018-May-23 01:00N 30°03' W 093°16'2 3.5
2018-May-23 00:30N 30°05' W 093°17'1 1.6
2018-May-23 00:00N 30°05' W 093°18'0 0.6
2018-May-22 23:30N 30°06' W 093°18'0 0.9
2018-May-22 23:00N 30°06' W 093°18'0 0.5
2018-May-22 22:30N 30°06' W 093°18'1 1.1
2018-May-22 22:00N 30°06' W 093°19'0 0.1
2018-May-22 21:30N 30°06' W 093°19'0 0.0
2018-May-22 21:01N 30°06' W 093°19'0 0.0
2018-May-22 20:30N 30°06' W 093°19'0 0.0
2018-May-22 20:00N 30°06' W 093°19'0 0.0
2018-May-22 19:31N 30°06' W 093°19'0 0.0
2018-May-22 19:00N 30°06' W 093°19'0 0.2
2018-May-22 18:30N 30°06' W 093°19'0 0.0
2018-May-22 18:00N 30°06' W 093°19'0 0.1
2018-May-22 17:29N 30°06' W 093°19'0 0.0
2018-May-22 17:00N 30°06' W 093°19'0 0.0
2018-May-22 16:30N 30°06' W 093°19'0 0.0
2018-May-22 16:00N 30°06' W 093°19'0 0.0
2018-May-22 15:30N 30°06' W 093°19'0 0.0
2018-May-22 15:00N 30°06' W 093°19'0 0.0
2018-May-22 14:30N 30°06' W 093°19'0 0.0
2018-May-22 14:00N 30°06' W 093°19'0 0.0
2018-May-22 13:30N 30°06' W 093°19'0 0.0
2018-May-22 13:01N 30°06' W 093°19'0 0.0
2018-May-22 12:30N 30°06' W 093°19'0 0.1
2018-May-22 12:00N 30°06' W 093°19'0 0.1
2018-May-22 11:30N 30°06' W 093°19'0 0.1
2018-May-22 11:00N 30°06' W 093°19'0 0.3
2018-May-22 10:30N 30°06' W 093°19'0 0.1
2018-May-22 10:01N 30°06' W 093°19'0 0.0
2018-May-22 09:30N 30°06' W 093°19'0 0.0
2018-May-22 09:00N 30°06' W 093°19'0 0.2
2018-May-22 08:31N 30°06' W 093°19'2 4.3
2018-May-22 08:00N 30°04' W 093°21'2 4.0
2018-May-22 07:30N 30°04' W 093°23'2 3.6
2018-May-22 07:00N 30°04' W 093°25'3 5.1
2018-May-22 06:30N 30°04' W 093°28'3 5.2
2018-May-22 06:00N 30°04' W 093°31'3 5.1
2018-May-22 05:30N 30°04' W 093°34'3 5.2
2018-May-22 05:01N 30°04' W 093°37'3 5.4
2018-May-22 04:31N 30°04' W 093°40'3 5.2
2018-May-22 04:01N 30°03' W 093°43'2 3.7
2018-May-22 03:30N 30°02' W 093°44'3 5.6
2018-May-22 03:00N 29°60' W 093°47'3 5.5
2018-May-22 02:31N 29°59' W 093°49'3 5.3
2018-May-22 02:00N 29°57' W 093°52'3 6.3
2018-May-22 01:30N 29°54' W 093°54'3 6.3
2018-May-22 01:00N 29°52' W 093°56'3 6.1
2018-May-22 00:30N 29°49' W 093°58'2 4.0
2018-May-22 00:00N 29°48' W 094°00'3 5.4
2018-May-21 23:31N 29°46' W 094°02'3 5.3
2018-May-21 23:00N 29°45' W 094°05'3 5.3
2018-May-21 22:31N 29°43' W 094°07'3 5.2
2018-May-21 22:00N 29°41' W 094°09'2 5.0
2018-May-21 21:30N 29°41' W 094°12'3 5.1
2018-May-21 21:00N 29°40' W 094°15'3 5.1
2018-May-21 20:30N 29°38' W 094°17'3 5.0
2018-May-21 19:59N 29°37' W 094°20'2 5.0
2018-May-21 19:30N 29°36' W 094°22'2 4.4
2018-May-21 19:00N 29°35' W 094°25'2 3.4
2018-May-21 18:28N 29°34' W 094°26'2 5.0
2018-May-21 18:00N 29°33' W 094°28'20 4.8
2018-May-21 13:56N 29°22' W 094°47'1 2.3
2018-May-21 13:28N 29°22' W 094°48'1 2.9
2018-May-21 12:59N 29°24' W 094°49'3 5.6
2018-May-21 12:29N 29°26' W 094°50'3 6.5
2018-May-21 12:00N 29°29' W 094°52'3 6.5
2018-May-21 11:30N 29°32' W 094°54'3 6.4
2018-May-21 11:00N 29°35' W 094°56'3 6.3
2018-May-21 10:30N 29°37' W 094°58'3 6.1
2018-May-21 10:00N 29°40' W 094°59'3 6.2
2018-May-21 09:30N 29°42' W 095°01'3 5.8
2018-May-21 09:00N 29°44' W 095°04'2 1.9
2018-May-21 07:48N 29°46' W 095°05'0 0.2
2018-May-21 07:27N 29°46' W 095°05'0 0.1
2018-May-21 07:01N 29°46' W 095°05'0 0.1
2018-May-21 06:28N 29°46' W 095°05'0 0.0
2018-May-21 06:00N 29°46' W 095°05'1 2.3
2018-May-21 05:29N 29°45' W 095°06'1 2.4
2018-May-21 05:00N 29°46' W 095°05'1 1.1
2018-May-21 04:29N 29°45' W 095°06'1 0.6
2018-May-21 03:27N 29°46' W 095°06'0 0.0
2018-May-21 02:58N 29°46' W 095°06'0 0.1
2018-May-21 01:00N 29°46' W 095°06'5 2.6
2018-May-20 22:58N 29°43' W 095°01'3 7.0
2018-May-20 22:28N 29°40' W 094°59'3 7.3
2018-May-20 22:00N 29°37' W 094°57'4 7.6
2018-May-20 21:30N 29°34' W 094°55'12 8.3
2018-May-20 20:01N 29°23' W 094°48'0 6.6
2018-May-20 20:01N 29°23' W 094°48'3 5.8
2018-May-20 19:29N 29°24' W 094°45'14 5.9
2018-May-20 17:11N 29°31' W 094°32'0 0.1
2018-May-20 16:56N 29°31' W 094°32'0 0.1
2018-May-20 16:26N 29°31' W 094°32'5 4.0
2018-May-20 15:15N 29°34' W 094°27'0 1.9
2018-May-20 14:59N 29°34' W 094°27'3 3.0
2018-May-20 14:06N 29°36' W 094°25'1 6.7
2018-May-20 14:00N 29°36' W 094°24'3 4.2
2018-May-20 13:23N 29°37' W 094°21'3 6.7
2018-May-20 13:00N 29°38' W 094°18'3 5.4
2018-May-20 12:30N 29°39' W 094°16'4 7.1
2018-May-20 12:00N 29°41' W 094°12'3 6.4
2018-May-20 11:30N 29°42' W 094°09'3 6.8
2018-May-20 11:00N 29°44' W 094°06'3 6.6
2018-May-20 10:30N 29°46' W 094°03'3 6.8
2018-May-20 10:01N 29°49' W 093°60'3 6.5
2018-May-20 09:30N 29°51' W 093°57'4 9.0
2018-May-20 09:01N 29°54' W 093°54'2 4.8
2018-May-20 08:31N 29°56' W 093°52'0 0.1
2018-May-20 08:00N 29°56' W 093°52'0 0.0
2018-May-20 07:29N 29°56' W 093°52'0 0.0
2018-May-20 07:00N 29°56' W 093°52'1 2.9
2018-May-20 06:31N 29°57' W 093°52'3 6.4
2018-May-20 06:01N 29°59' W 093°48'2 4.7
2018-May-20 05:31N 30°00' W 093°46'0 0.5
2018-May-20 05:00N 30°01' W 093°46'3 6.3
2018-May-20 04:31N 30°03' W 093°44'3 5.7
2018-May-20 04:00N 30°04' W 093°40'4 5.7
2018-May-20 03:23N 30°04' W 093°36'2 5.4
2018-May-20 03:00N 30°04' W 093°34'3 5.4
2018-May-20 02:31N 30°04' W 093°31'3 5.8
2018-May-20 02:01N 30°04' W 093°27'3 5.4
2018-May-20 01:30N 30°04' W 093°24'2 3.9
2018-May-20 01:01N 30°04' W 093°22'0 0.6
2018-May-20 00:31N 30°04' W 093°22'3 5.6
2018-May-20 00:01N 30°06' W 093°20'3 6.1
2018-May-19 23:31N 30°09' W 093°20'2 3.5
2018-May-19 23:01N 30°10' W 093°19'0 0.3
2018-May-19 22:31N 30°10' W 093°19'0 0.0
2018-May-19 22:01N 30°10' W 093°19'0 0.1
2018-May-19 21:31N 30°10' W 093°19'0 0.0
2018-May-19 21:01N 30°10' W 093°19'0 0.0
2018-May-19 20:31N 30°10' W 093°19'0 0.0
2018-May-19 20:01N 30°10' W 093°19'0 0.0
2018-May-19 19:31N 30°10' W 093°19'0 0.0
2018-May-19 18:59N 30°10' W 093°19'0 0.0
2018-May-19 18:31N 30°10' W 093°19'0 0.0
2018-May-19 18:01N 30°10' W 093°19'0 0.0
2018-May-19 17:29N 30°10' W 093°19'0 0.0
2018-May-19 17:00N 30°10' W 093°19'0 0.0
2018-May-19 16:29N 30°10' W 093°19'0 0.0
2018-May-19 15:57N 30°10' W 093°19'0 0.0
2018-May-19 15:29N 30°10' W 093°19'0 0.0
2018-May-19 15:00N 30°10' W 093°19'0 0.0
2018-May-19 14:30N 30°10' W 093°19'0 0.0
2018-May-19 14:00N 30°10' W 093°19'0 0.0
2018-May-19 13:30N 30°10' W 093°19'0 0.0
2018-May-19 13:00N 30°10' W 093°19'0 0.0
2018-May-19 12:30N 30°10' W 093°19'0 0.0
2018-May-19 12:00N 30°10' W 093°19'0 0.0
2018-May-19 11:30N 30°10' W 093°19'0 0.0
2018-May-19 11:00N 30°10' W 093°19'0 0.0
2018-May-19 10:30N 30°10' W 093°19'0 0.0
2018-May-19 10:00N 30°10' W 093°19'0 0.0
2018-May-19 09:30N 30°10' W 093°19'0 0.0
2018-May-19 09:00N 30°10' W 093°19'0 0.0
2018-May-19 08:30N 30°10' W 093°19'0 0.0
2018-May-19 08:00N 30°10' W 093°19'0 0.0
2018-May-19 07:30N 30°10' W 093°19'0 0.0
2018-May-19 07:00N 30°10' W 093°19'0 0.0
2018-May-19 06:30N 30°10' W 093°19'0 0.0
2018-May-19 06:00N 30°10' W 093°19'0 0.0
2018-May-19 05:30N 30°10' W 093°19'0 0.0
2018-May-19 05:00N 30°10' W 093°19'0 0.0
2018-May-19 04:30N 30°10' W 093°19'0 0.0
2018-May-19 04:00N 30°10' W 093°19'0 0.0
2018-May-19 03:30N 30°10' W 093°19'0 0.0
2018-May-19 03:00N 30°10' W 093°19'0 0.0
2018-May-19 02:30N 30°10' W 093°19'0 0.0
2018-May-19 02:00N 30°10' W 093°19'0 0.0
2018-May-19 01:30N 30°10' W 093°19'0 0.0
2018-May-19 01:00N 30°10' W 093°19'0 0.0
2018-May-19 00:30N 30°10' W 093°19'0 0.0
2018-May-19 00:00N 30°10' W 093°19'0 0.0
2018-May-18 23:30N 30°10' W 093°19'0 0.0
2018-May-18 23:00N 30°10' W 093°19'0 0.0
2018-May-18 22:30N 30°10' W 093°19'0 0.0
2018-May-18 22:00N 30°10' W 093°19'0 0.1
2018-May-18 21:30N 30°10' W 093°19'0 0.0
2018-May-18 21:00N 30°10' W 093°19'0 0.0
2018-May-18 20:30N 30°10' W 093°19'0 0.0
2018-May-18 20:00N 30°10' W 093°19'0 0.0
2018-May-18 19:30N 30°10' W 093°19'0 0.0
2018-May-18 19:00N 30°10' W 093°19'0 0.0
2018-May-18 18:30N 30°10' W 093°19'0 0.0
2018-May-18 18:00N 30°10' W 093°19'2 3.9
2018-May-18 17:30N 30°09' W 093°20'3 5.9
2018-May-18 17:00N 30°06' W 093°20'2 4.4
2018-May-18 16:30N 30°04' W 093°21'1 1.6
2018-May-18 16:00N 30°04' W 093°22'0 0.0
2018-May-18 15:30N 30°04' W 093°22'0 0.0
2018-May-18 15:00N 30°04' W 093°22'0 0.0
2018-May-18 14:30N 30°04' W 093°22'1 1.1
2018-May-18 14:00N 30°04' W 093°21'1 1.1
2018-May-18 13:30N 30°04' W 093°22'0 0.9
2018-May-18 13:01N 30°04' W 093°21'0 0.8
2018-May-18 12:29N 30°04' W 093°22'0 0.0
2018-May-18 12:00N 30°04' W 093°22'0 0.0
2018-May-18 11:30N 30°04' W 093°22'0 0.0
2018-May-18 10:59N 30°04' W 093°22'0 0.0
2018-May-18 10:29N 30°04' W 093°22'0 0.1
2018-May-18 10:00N 30°04' W 093°22'0 0.1
2018-May-18 09:30N 30°04' W 093°22'0 0.0
2018-May-18 09:00N 30°04' W 093°22'0 0.0
2018-May-18 08:29N 30°04' W 093°22'0 0.0
2018-May-18 08:00N 30°04' W 093°22'0 0.0
2018-May-18 07:29N 30°04' W 093°22'0 0.0
2018-May-18 07:00N 30°04' W 093°22'0 0.0
2018-May-18 06:30N 30°04' W 093°22'0 0.0
2018-May-18 06:00N 30°04' W 093°22'0 0.0
2018-May-18 05:30N 30°04' W 093°22'0 0.0
2018-May-18 04:59N 30°04' W 093°22'0 0.0
2018-May-18 04:30N 30°04' W 093°22'0 0.0
2018-May-18 03:53N 30°04' W 093°22'0 0.0
2018-May-18 03:27N 30°04' W 093°22'0 0.0
2018-May-18 03:00N 30°04' W 093°22'0 0.0
2018-May-18 02:30N 30°04' W 093°22'0 0.0
2018-May-18 02:00N 30°04' W 093°22'0 0.0
2018-May-18 01:30N 30°04' W 093°22'0 0.0
2018-May-18 01:00N 30°04' W 093°22'0 0.0
2018-May-18 00:30N 30°04' W 093°22'0 0.0
2018-May-17 23:50N 30°04' W 093°22'0 0.0
2018-May-17 23:29N 30°04' W 093°22'0 0.0
2018-May-17 23:00N 30°04' W 093°22'0 0.0
2018-May-17 22:30N 30°04' W 093°22'0 0.0
2018-May-17 21:59N 30°04' W 093°22'0 0.0
2018-May-17 21:30N 30°04' W 093°22'0 0.0
2018-May-17 20:54N 30°04' W 093°22'0 0.0
2018-May-17 20:29N 30°04' W 093°22'0 0.0
2018-May-17 20:00N 30°04' W 093°22'0 0.0
2018-May-17 19:30N 30°04' W 093°22'0 0.0
2018-May-17 19:00N 30°04' W 093°22'0 0.0
2018-May-17 18:29N 30°04' W 093°22'0 0.0
2018-May-17 17:59N 30°04' W 093°22'0 0.0
2018-May-17 17:30N 30°04' W 093°22'0 0.0
2018-May-17 16:59N 30°04' W 093°22'0 0.0
2018-May-17 16:30N 30°04' W 093°22'1 1.1
2018-May-17 16:00N 30°04' W 093°21'1 1.1
2018-May-17 15:31N 30°04' W 093°22'0 0.2
2018-May-17 15:00N 30°04' W 093°22'0 1.0
2018-May-17 14:31N 30°04' W 093°21'0 0.0
2018-May-17 14:00N 30°04' W 093°21'1 1.2
2018-May-17 13:31N 30°04' W 093°22'0 0.0
2018-May-17 13:01N 30°04' W 093°22'0 0.0
2018-May-17 12:30N 30°04' W 093°22'0 0.0
2018-May-17 12:00N 30°04' W 093°22'0 0.0
2018-May-17 11:30N 30°04' W 093°22'0 0.0
2018-May-17 11:00N 30°04' W 093°22'0 0.0
2018-May-17 10:30N 30°04' W 093°22'0 0.0
2018-May-17 10:01N 30°04' W 093°22'0 0.0
2018-May-17 09:30N 30°04' W 093°22'0 0.0
2018-May-17 09:01N 30°04' W 093°22'0 0.0
2018-May-17 08:30N 30°04' W 093°22'0 0.0
2018-May-17 08:00N 30°04' W 093°22'0 0.0
2018-May-17 07:30N 30°04' W 093°22'0 0.0
2018-May-17 07:01N 30°04' W 093°22'0 0.0
2018-May-17 06:30N 30°04' W 093°22'0 0.0
2018-May-17 06:00N 30°04' W 093°22'0 0.0
2018-May-17 05:30N 30°04' W 093°22'0 0.0
2018-May-17 04:59N 30°04' W 093°22'0 0.0
2018-May-17 04:31N 30°04' W 093°22'0 0.0
2018-May-17 04:01N 30°04' W 093°22'0 0.0
2018-May-17 03:30N 30°04' W 093°22'0 0.0
2018-May-17 03:00N 30°04' W 093°22'0 0.0
2018-May-17 02:30N 30°04' W 093°22'0 0.0
2018-May-17 02:00N 30°04' W 093°22'0 0.0
2018-May-17 01:31N 30°04' W 093°22'0 0.0
2018-May-17 01:01N 30°04' W 093°22'0 0.0
2018-May-17 00:30N 30°04' W 093°22'0 0.0
2018-May-17 00:00N 30°04' W 093°22'0 0.0
2018-May-16 23:31N 30°04' W 093°22'1 1.1
2018-May-16 23:00N 30°04' W 093°21'1 1.1
2018-May-16 22:31N 30°04' W 093°22'0 0.0
2018-May-16 22:00N 30°04' W 093°22'0 0.0
2018-May-16 21:31N 30°04' W 093°22'0 0.0
2018-May-16 21:01N 30°04' W 093°22'0 0.0
2018-May-16 20:31N 30°04' W 093°22'0 0.0
2018-May-16 20:01N 30°04' W 093°22'0 0.0
2018-May-16 19:31N 30°04' W 093°22'0 0.0
2018-May-16 19:00N 30°04' W 093°22'0 0.0
2018-May-16 18:31N 30°04' W 093°22'0 1.0
2018-May-16 18:01N 30°04' W 093°21'0 0.0
2018-May-16 17:30N 30°04' W 093°21'0 1.0
2018-May-16 17:01N 30°04' W 093°22'0 0.0
2018-May-16 16:30N 30°04' W 093°22'0 0.0
2018-May-16 16:00N 30°04' W 093°22'0 0.0
2018-May-16 15:30N 30°04' W 093°22'0 0.0
2018-May-16 15:00N 30°04' W 093°22'0 0.0
2018-May-16 14:31N 30°04' W 093°22'0 0.0
2018-May-16 14:00N 30°04' W 093°22'0 0.0
2018-May-16 13:30N 30°04' W 093°22'0 0.0
2018-May-16 13:00N 30°04' W 093°22'0 0.0
2018-May-16 12:30N 30°04' W 093°22'0 0.0
2018-May-16 12:00N 30°04' W 093°22'0 0.0
2018-May-16 11:30N 30°04' W 093°22'0 0.0
2018-May-16 11:00N 30°04' W 093°22'0 0.0
2018-May-16 10:31N 30°04' W 093°22'0 0.0
2018-May-16 10:00N 30°04' W 093°22'0 0.0
2018-May-16 09:30N 30°04' W 093°22'0 0.0
2018-May-16 09:00N 30°04' W 093°22'0 0.0
2018-May-16 08:30N 30°04' W 093°22'0 0.0
2018-May-16 08:00N 30°04' W 093°22'0 0.0
2018-May-16 07:30N 30°04' W 093°22'0 0.0
2018-May-16 07:00N 30°04' W 093°22'0 0.0
2018-May-16 06:30N 30°04' W 093°22'0 0.0
2018-May-16 06:00N 30°04' W 093°22'0 0.0
2018-May-16 05:30N 30°04' W 093°22'0 0.0
2018-May-16 04:58N 30°04' W 093°22'0 0.0
2018-May-16 04:30N 30°04' W 093°22'0 0.0
2018-May-16 04:00N 30°04' W 093°22'0 0.0
2018-May-16 03:30N 30°04' W 093°22'0 0.0
2018-May-16 03:01N 30°04' W 093°22'0 0.0
2018-May-16 02:30N 30°04' W 093°22'0 0.0
2018-May-16 02:00N 30°04' W 093°22'0 0.0
2018-May-16 01:30N 30°04' W 093°22'0 0.0
2018-May-16 00:58N 30°04' W 093°22'0 0.0
2018-May-16 00:30N 30°04' W 093°22'0 0.0
2018-May-16 00:00N 30°04' W 093°22'0 0.0
2018-May-15 23:30N 30°04' W 093°22'0 0.0
2018-May-15 22:59N 30°04' W 093°22'0 0.0
2018-May-15 22:30N 30°04' W 093°22'0 0.0
2018-May-15 22:00N 30°04' W 093°22'0 0.0
2018-May-15 21:30N 30°04' W 093°22'0 0.0
2018-May-15 21:00N 30°04' W 093°22'0 0.0
2018-May-15 20:30N 30°04' W 093°22'0 0.0
2018-May-15 20:00N 30°04' W 093°22'0 0.0
2018-May-15 19:30N 30°04' W 093°22'0 0.0
2018-May-15 19:00N 30°04' W 093°22'0 0.0
2018-May-15 18:30N 30°04' W 093°22'0 0.0
2018-May-15 18:00N 30°04' W 093°22'0 0.0
2018-May-15 17:30N 30°04' W 093°22'0 0.0
2018-May-15 17:00N 30°04' W 093°22'0 0.0
2018-May-15 16:30N 30°04' W 093°22'0 0.0
2018-May-15 16:00N 30°04' W 093°22'0 0.0
2018-May-15 15:30N 30°04' W 093°22'0 0.0
2018-May-15 15:00N 30°04' W 093°22'0 1.0
2018-May-15 14:30N 30°04' W 093°21'0 1.0
2018-May-15 14:00N 30°04' W 093°22'0 0.0
2018-May-15 13:30N 30°04' W 093°22'0 0.0
2018-May-15 13:00N 30°04' W 093°22'0 0.0
2018-May-15 12:30N 30°04' W 093°22'0 0.0
2018-May-15 12:00N 30°04' W 093°22'0 0.0
2018-May-15 11:30N 30°04' W 093°22'0 0.0
2018-May-15 11:00N 30°04' W 093°22'0 0.0
2018-May-15 10:30N 30°04' W 093°22'0 0.0
2018-May-15 10:00N 30°04' W 093°22'0 0.0
2018-May-15 09:30N 30°04' W 093°22'0 0.0
2018-May-15 09:00N 30°04' W 093°22'0 0.0
2018-May-15 08:30N 30°04' W 093°22'0 0.0
2018-May-15 08:00N 30°04' W 093°22'0 0.0
2018-May-15 07:30N 30°04' W 093°22'0 0.0
2018-May-15 07:00N 30°04' W 093°22'0 0.0
2018-May-15 06:30N 30°04' W 093°22'0 0.0
2018-May-15 06:00N 30°04' W 093°22'0 0.0
2018-May-15 05:30N 30°04' W 093°22'0 0.0
2018-May-15 05:00N 30°04' W 093°22'0 0.0
2018-May-15 04:30N 30°04' W 093°22'0 0.0
2018-May-15 04:00N 30°04' W 093°22'0 0.0
2018-May-15 03:30N 30°04' W 093°22'0 0.0
2018-May-15 03:00N 30°04' W 093°22'0 0.0
2018-May-15 02:30N 30°04' W 093°22'0 0.0
2018-May-15 02:00N 30°04' W 093°22'0 0.0
2018-May-15 01:30N 30°04' W 093°22'0 0.0
2018-May-15 01:00N 30°04' W 093°22'0 0.0
2018-May-15 00:30N 30°04' W 093°22'0 0.0
2018-May-15 00:00N 30°04' W 093°22'0 0.0
2018-May-14 23:30N 30°04' W 093°22'0 1.0
2018-May-14 23:00N 30°04' W 093°21'0 0.0
2018-May-14 22:30N 30°04' W 093°21'0 0.0
2018-May-14 22:00N 30°04' W 093°21'0 0.0
2018-May-14 21:30N 30°04' W 093°21'0 0.0
2018-May-14 21:00N 30°04' W 093°21'0 0.6
2018-May-14 20:30N 30°04' W 093°22'0 0.4
2018-May-14 20:00N 30°04' W 093°22'0 0.0
2018-May-14 19:30N 30°04' W 093°22'0 0.0
2018-May-14 19:00N 30°04' W 093°22'0 0.0
2018-May-14 18:30N 30°04' W 093°22'0 0.0
2018-May-14 18:00N 30°04' W 093°22'  
Track history (hours):
 
Tides and Currents Weather Stations Pressure Air Temp Water Temp Dewpoint Dewpoint Depression Visibility Wind Speed Wind Dir Waves Ship Positions

American Strong

Owner: American Commercial Lines LLC, Jeffersonville, IN. More information available from US FCC via Universal Licensing System and Coast Guard Vessel Documentation Center.

Last reported at 2018-May-24 17:15 UTC. Time now 2018-May-25 05:24 UTC.
Position N 29°34' W 090°32'.

Length 26 m; draft 3.1 m.

Type: Towing. MMSI: 367765490.

Date/timePositionNaut miles runAvg speedWind from/ knotsBaromVisibWave heightAir tempDewpointWater temp
2018-May-24 17:15N 29°34' W 090°32'1 5.1
2018-May-24 17:00N 29°34' W 090°34'2 4.8
2018-May-24 16:30N 29°35' W 090°37'3 5.1
2018-May-24 16:00N 29°36' W 090°39'2 4.7
2018-May-24 15:30N 29°37' W 090°42'2 3.4
2018-May-24 15:00N 29°35' W 090°43'2 4.0
2018-May-24 14:30N 29°34' W 090°44'2 4.1
2018-May-24 14:00N 29°32' W 090°46'3 6.1
2018-May-24 13:30N 29°32' W 090°49'66 4.1
2018-May-23 21:37N 29°49' W 092°02'1 5.2
2018-May-23 21:29N 29°49' W 092°03'3 5.4
2018-May-23 21:01N 29°48' W 092°06'3 5.3
2018-May-23 20:31N 29°47' W 092°09'2 4.6
2018-May-23 19:59N 29°47' W 092°12'1 1.8
2018-May-23 19:30N 29°47' W 092°13'1 2.4
2018-May-23 19:01N 29°48' W 092°14'1 2.3
2018-May-23 18:30N 29°48' W 092°15'2 4.5
2018-May-23 18:01N 29°49' W 092°17'2 4.3
2018-May-23 17:31N 29°50' W 092°19'3 4.2
2018-May-23 16:45N 29°52' W 092°22'1 4.5
2018-May-23 16:27N 29°53' W 092°24'2 4.7
2018-May-23 15:58N 29°53' W 092°26'39 3.1
2018-May-23 03:30N 29°57' W 093°10'1 3.0
2018-May-23 03:00N 29°58' W 093°12'2 3.1
2018-May-23 02:30N 29°59' W 093°13'2 3.7
2018-May-23 02:00N 30°01' W 093°14'2 3.1
2018-May-23 01:30N 30°02' W 093°15'2 3.2
2018-May-23 01:00N 30°03' W 093°16'2 3.5
2018-May-23 00:30N 30°05' W 093°17'1 1.6
2018-May-23 00:00N 30°05' W 093°18'0 0.6
2018-May-22 23:30N 30°06' W 093°18'0 0.9
2018-May-22 23:00N 30°06' W 093°18'0 0.5
2018-May-22 22:30N 30°06' W 093°18'1 1.1
2018-May-22 22:00N 30°06' W 093°19'0 0.1
2018-May-22 21:30N 30°06' W 093°19'0 0.0
2018-May-22 21:01N 30°06' W 093°19'0 0.0
2018-May-22 20:30N 30°06' W 093°19'0 0.0
2018-May-22 20:00N 30°06' W 093°19'0 0.0
2018-May-22 19:31N 30°06' W 093°19'0 0.0
2018-May-22 19:00N 30°06' W 093°19'0 0.2
2018-May-22 18:30N 30°06' W 093°19'0 0.0
2018-May-22 18:00N 30°06' W 093°19'0 0.1
2018-May-22 17:29N 30°06' W 093°19'0 0.0
2018-May-22 17:00N 30°06' W 093°19'0 0.0
2018-May-22 16:30N 30°06' W 093°19'0 0.0
2018-May-22 16:00N 30°06' W 093°19'0 0.0
2018-May-22 15:30N 30°06' W 093°19'0 0.0
2018-May-22 15:00N 30°06' W 093°19'0 0.0
2018-May-22 14:30N 30°06' W 093°19'0 0.0
2018-May-22 14:00N 30°06' W 093°19'0 0.0
2018-May-22 13:30N 30°06' W 093°19'0 0.0
2018-May-22 13:01N 30°06' W 093°19'0 0.0
2018-May-22 12:30N 30°06' W 093°19'0 0.1
2018-May-22 12:00N 30°06' W 093°19'0 0.1
2018-May-22 11:30N 30°06' W 093°19'0 0.1
2018-May-22 11:00N 30°06' W 093°19'0 0.3
2018-May-22 10:30N 30°06' W 093°19'0 0.1
2018-May-22 10:01N 30°06' W 093°19'0 0.0
2018-May-22 09:30N 30°06' W 093°19'0 0.0
2018-May-22 09:00N 30°06' W 093°19'0 0.2
2018-May-22 08:31N 30°06' W 093°19'2 4.3
2018-May-22 08:00N 30°04' W 093°21'2 4.0
2018-May-22 07:30N 30°04' W 093°23'2 3.6
2018-May-22 07:00N 30°04' W 093°25'3 5.1
2018-May-22 06:30N 30°04' W 093°28'3 5.2
2018-May-22 06:00N 30°04' W 093°31'3 5.1
2018-May-22 05:30N 30°04' W 093°34'3 5.2
2018-May-22 05:01N 30°04' W 093°37'3 5.4
2018-May-22 04:31N 30°04' W 093°40'3 5.2
2018-May-22 04:01N 30°03' W 093°43'2 3.7
2018-May-22 03:30N 30°02' W 093°44'3 5.6
2018-May-22 03:00N 29°60' W 093°47'3 5.5
2018-May-22 02:31N 29°59' W 093°49'3 5.3
2018-May-22 02:00N 29°57' W 093°52'3 6.3
2018-May-22 01:30N 29°54' W 093°54'3 6.3
2018-May-22 01:00N 29°52' W 093°56'3 6.1
2018-May-22 00:30N 29°49' W 093°58'2 4.0
2018-May-22 00:00N 29°48' W 094°00'3 5.4
2018-May-21 23:31N 29°46' W 094°02'3 5.3
2018-May-21 23:00N 29°45' W 094°05'3 5.3
2018-May-21 22:31N 29°43' W 094°07'3 5.2
2018-May-21 22:00N 29°41' W 094°09'2 5.0
2018-May-21 21:30N 29°41' W 094°12'3 5.1
2018-May-21 21:00N 29°40' W 094°15'3 5.1
2018-May-21 20:30N 29°38' W 094°17'3 5.0
2018-May-21 19:59N 29°37' W 094°20'2 5.0
2018-May-21 19:30N 29°36' W 094°22'2 4.4
2018-May-21 19:00N 29°35' W 094°25'2 3.4
2018-May-21 18:28N 29°34' W 094°26'2 5.0
2018-May-21 18:00N 29°33' W 094°28'20 4.8
2018-May-21 13:56N 29°22' W 094°47'1 2.3
2018-May-21 13:28N 29°22' W 094°48'1 2.9
2018-May-21 12:59N 29°24' W 094°49'3 5.6
2018-May-21 12:29N 29°26' W 094°50'3 6.5
2018-May-21 12:00N 29°29' W 094°52'3 6.5
2018-May-21 11:30N 29°32' W 094°54'3 6.4
2018-May-21 11:00N 29°35' W 094°56'3 6.3
2018-May-21 10:30N 29°37' W 094°58'3 6.1
2018-May-21 10:00N 29°40' W 094°59'3 6.2
2018-May-21 09:30N 29°42' W 095°01'3 5.8
2018-May-21 09:00N 29°44' W 095°04'2 1.9
2018-May-21 07:48N 29°46' W 095°05'0 0.2
2018-May-21 07:27N 29°46' W 095°05'0 0.1
2018-May-21 07:01N 29°46' W 095°05'0 0.1
2018-May-21 06:28N 29°46' W 095°05'0 0.0
2018-May-21 06:00N 29°46' W 095°05'1 2.3
2018-May-21 05:29N 29°45' W 095°06'1 2.4
2018-May-21 05:00N 29°46' W 095°05'1 1.1
2018-May-21 04:29N 29°45' W 095°06'1 0.6
2018-May-21 03:27N 29°46' W 095°06'0 0.0
2018-May-21 02:58N 29°46' W 095°06'0 0.1
2018-May-21 01:00N 29°46' W 095°06'5 2.6
2018-May-20 22:58N 29°43' W 095°01'3 7.0
2018-May-20 22:28N 29°40' W 094°59'3 7.3
2018-May-20 22:00N 29°37' W 094°57'4 7.6
2018-May-20 21:30N 29°34' W 094°55'12 8.3
2018-May-20 20:01N 29°23' W 094°48'0 6.6
2018-May-20 20:01N 29°23' W 094°48'3 5.8
2018-May-20 19:29N 29°24' W 094°45'14 5.9
2018-May-20 17:11N 29°31' W 094°32'0 0.1
2018-May-20 16:56N 29°31' W 094°32'0 0.1
2018-May-20 16:26N 29°31' W 094°32'5 4.0
2018-May-20 15:15N 29°34' W 094°27'0 1.9
2018-May-20 14:59N 29°34' W 094°27'3 3.0
2018-May-20 14:06N 29°36' W 094°25'1 6.7
2018-May-20 14:00N 29°36' W 094°24'3 4.2
2018-May-20 13:23N 29°37' W 094°21'3 6.7
2018-May-20 13:00N 29°38' W 094°18'3 5.4
2018-May-20 12:30N 29°39' W 094°16'4 7.1
2018-May-20 12:00N 29°41' W 094°12'3 6.4
2018-May-20 11:30N 29°42' W 094°09'3 6.8
2018-May-20 11:00N 29°44' W 094°06'3 6.6
2018-May-20 10:30N 29°46' W 094°03'3 6.8
2018-May-20 10:01N 29°49' W 093°60'3 6.5
2018-May-20 09:30N 29°51' W 093°57'4 9.0
2018-May-20 09:01N 29°54' W 093°54'2 4.8
2018-May-20 08:31N 29°56' W 093°52'0 0.1
2018-May-20 08:00N 29°56' W 093°52'0 0.0
2018-May-20 07:29N 29°56' W 093°52'0 0.0
2018-May-20 07:00N 29°56' W 093°52'1 2.9
2018-May-20 06:31N 29°57' W 093°52'3 6.4
2018-May-20 06:01N 29°59' W 093°48'2 4.7
2018-May-20 05:31N 30°00' W 093°46'0 0.5
2018-May-20 05:00N 30°01' W 093°46'3 6.3
2018-May-20 04:31N 30°03' W 093°44'3 5.7
2018-May-20 04:00N 30°04' W 093°40'4 5.7
2018-May-20 03:23N 30°04' W 093°36'2 5.4
2018-May-20 03:00N 30°04' W 093°34'3 5.4
2018-May-20 02:31N 30°04' W 093°31'3 5.8
2018-May-20 02:01N 30°04' W 093°27'3 5.4
2018-May-20 01:30N 30°04' W 093°24'2 3.9
2018-May-20 01:01N 30°04' W 093°22'0 0.6
2018-May-20 00:31N 30°04' W 093°22'3 5.6
2018-May-20 00:01N 30°06' W 093°20'3 6.1
2018-May-19 23:31N 30°09' W 093°20'2 3.5
2018-May-19 23:01N 30°10' W 093°19'0 0.3
2018-May-19 22:31N 30°10' W 093°19'0 0.0
2018-May-19 22:01N 30°10' W 093°19'0 0.1
2018-May-19 21:31N 30°10' W 093°19'0 0.0
2018-May-19 21:01N 30°10' W 093°19'0 0.0
2018-May-19 20:31N 30°10' W 093°19'0 0.0
2018-May-19 20:01N 30°10' W 093°19'0 0.0
2018-May-19 19:31N 30°10' W 093°19'0 0.0
2018-May-19 18:59N 30°10' W 093°19'0 0.0
2018-May-19 18:31N 30°10' W 093°19'0 0.0
2018-May-19 18:01N 30°10' W 093°19'0 0.0
2018-May-19 17:29N 30°10' W 093°19'0 0.0
2018-May-19 17:00N 30°10' W 093°19'0 0.0
2018-May-19 16:29N 30°10' W 093°19'0 0.0
2018-May-19 15:57N 30°10' W 093°19'0 0.0
2018-May-19 15:29N 30°10' W 093°19'0 0.0
2018-May-19 15:00N 30°10' W 093°19'0 0.0
2018-May-19 14:30N 30°10' W 093°19'0 0.0
2018-May-19 14:00N 30°10' W 093°19'0 0.0
2018-May-19 13:30N 30°10' W 093°19'0 0.0
2018-May-19 13:00N 30°10' W 093°19'0 0.0
2018-May-19 12:30N 30°10' W 093°19'0 0.0
2018-May-19 12:00N 30°10' W 093°19'0 0.0
2018-May-19 11:30N 30°10' W 093°19'0 0.0
2018-May-19 11:00N 30°10' W 093°19'0 0.0
2018-May-19 10:30N 30°10' W 093°19'0 0.0
2018-May-19 10:00N 30°10' W 093°19'0 0.0
2018-May-19 09:30N 30°10' W 093°19'0 0.0
2018-May-19 09:00N 30°10' W 093°19'0 0.0
2018-May-19 08:30N 30°10' W 093°19'0 0.0
2018-May-19 08:00N 30°10' W 093°19'0 0.0
2018-May-19 07:30N 30°10' W 093°19'0 0.0
2018-May-19 07:00N 30°10' W 093°19'0 0.0
2018-May-19 06:30N 30°10' W 093°19'0 0.0
2018-May-19 06:00N 30°10' W 093°19'0 0.0
2018-May-19 05:30N 30°10' W 093°19'0 0.0
2018-May-19 05:00N 30°10' W 093°19'0 0.0
2018-May-19 04:30N 30°10' W 093°19'0 0.0
2018-May-19 04:00N 30°10' W 093°19'0 0.0
2018-May-19 03:30N 30°10' W 093°19'0 0.0
2018-May-19 03:00N 30°10' W 093°19'0 0.0
2018-May-19 02:30N 30°10' W 093°19'0 0.0
2018-May-19 02:00N 30°10' W 093°19'0 0.0
2018-May-19 01:30N 30°10' W 093°19'0 0.0
2018-May-19 01:00N 30°10' W 093°19'0 0.0
2018-May-19 00:30N 30°10' W 093°19'0 0.0
2018-May-19 00:00N 30°10' W 093°19'0 0.0
2018-May-18 23:30N 30°10' W 093°19'0 0.0
2018-May-18 23:00N 30°10' W 093°19'0 0.0
2018-May-18 22:30N 30°10' W 093°19'0 0.0
2018-May-18 22:00N 30°10' W 093°19'0 0.1
2018-May-18 21:30N 30°10' W 093°19'0 0.0
2018-May-18 21:00N 30°10' W 093°19'0 0.0
2018-May-18 20:30N 30°10' W 093°19'0 0.0
2018-May-18 20:00N 30°10' W 093°19'0 0.0
2018-May-18 19:30N 30°10' W 093°19'0 0.0
2018-May-18 19:00N 30°10' W 093°19'0 0.0
2018-May-18 18:30N 30°10' W 093°19'0 0.0
2018-May-18 18:00N 30°10' W 093°19'2 3.9
2018-May-18 17:30N 30°09' W 093°20'3 5.9
2018-May-18 17:00N 30°06' W 093°20'2 4.4
2018-May-18 16:30N 30°04' W 093°21'1 1.6
2018-May-18 16:00N 30°04' W 093°22'0 0.0
2018-May-18 15:30N 30°04' W 093°22'0 0.0
2018-May-18 15:00N 30°04' W 093°22'0 0.0
2018-May-18 14:30N 30°04' W 093°22'1 1.1
2018-May-18 14:00N 30°04' W 093°21'1 1.1
2018-May-18 13:30N 30°04' W 093°22'0 0.9
2018-May-18 13:01N 30°04' W 093°21'0 0.8
2018-May-18 12:29N 30°04' W 093°22'0 0.0
2018-May-18 12:00N 30°04' W 093°22'0 0.0
2018-May-18 11:30N 30°04' W 093°22'0 0.0
2018-May-18 10:59N 30°04' W 093°22'0 0.0
2018-May-18 10:29N 30°04' W 093°22'0 0.1
2018-May-18 10:00N 30°04' W 093°22'0 0.1
2018-May-18 09:30N 30°04' W 093°22'0 0.0
2018-May-18 09:00N 30°04' W 093°22'0 0.0
2018-May-18 08:29N 30°04' W 093°22'0 0.0
2018-May-18 08:00N 30°04' W 093°22'0 0.0
2018-May-18 07:29N 30°04' W 093°22'0 0.0
2018-May-18 07:00N 30°04' W 093°22'0 0.0
2018-May-18 06:30N 30°04' W 093°22'0 0.0
2018-May-18 06:00N 30°04' W 093°22'0 0.0
2018-May-18 05:30N 30°04' W 093°22'0 0.0
2018-May-18 04:59N 30°04' W 093°22'0 0.0
2018-May-18 04:30N 30°04' W 093°22'0 0.0
2018-May-18 03:53N 30°04' W 093°22'0 0.0
2018-May-18 03:27N 30°04' W 093°22'0 0.0
2018-May-18 03:00N 30°04' W 093°22'0 0.0
2018-May-18 02:30N 30°04' W 093°22'0 0.0
2018-May-18 02:00N 30°04' W 093°22'0 0.0
2018-May-18 01:30N 30°04' W 093°22'0 0.0
2018-May-18 01:00N 30°04' W 093°22'0 0.0
2018-May-18 00:30N 30°04' W 093°22'0 0.0
2018-May-17 23:50N 30°04' W 093°22'0 0.0
2018-May-17 23:29N 30°04' W 093°22'0 0.0
2018-May-17 23:00N 30°04' W 093°22'0 0.0
2018-May-17 22:30N 30°04' W 093°22'0 0.0
2018-May-17 21:59N 30°04' W 093°22'0 0.0
2018-May-17 21:30N 30°04' W 093°22'0 0.0
2018-May-17 20:54N 30°04' W 093°22'0 0.0
2018-May-17 20:29N 30°04' W 093°22'0 0.0
2018-May-17 20:00N 30°04' W 093°22'0 0.0
2018-May-17 19:30N 30°04' W 093°22'0 0.0
2018-May-17 19:00N 30°04' W 093°22'0 0.0
2018-May-17 18:29N 30°04' W 093°22'0 0.0
2018-May-17 17:59N 30°04' W 093°22'0 0.0
2018-May-17 17:30N 30°04' W 093°22'0 0.0
2018-May-17 16:59N 30°04' W 093°22'0 0.0
2018-May-17 16:30N 30°04' W 093°22'1 1.1
2018-May-17 16:00N 30°04' W 093°21'1 1.1
2018-May-17 15:31N 30°04' W 093°22'0 0.2
2018-May-17 15:00N 30°04' W 093°22'0 1.0
2018-May-17 14:31N 30°04' W 093°21'0 0.0
2018-May-17 14:00N 30°04' W 093°21'1 1.2
2018-May-17 13:31N 30°04' W 093°22'0 0.0
2018-May-17 13:01N 30°04' W 093°22'0 0.0
2018-May-17 12:30N 30°04' W 093°22'0 0.0
2018-May-17 12:00N 30°04' W 093°22'0 0.0
2018-May-17 11:30N 30°04' W 093°22'0 0.0
2018-May-17 11:00N 30°04' W 093°22'0 0.0
2018-May-17 10:30N 30°04' W 093°22'0 0.0
2018-May-17 10:01N 30°04' W 093°22'0 0.0
2018-May-17 09:30N 30°04' W 093°22'0 0.0
2018-May-17 09:01N 30°04' W 093°22'0 0.0
2018-May-17 08:30N 30°04' W 093°22'0 0.0
2018-May-17 08:00N 30°04' W 093°22'0 0.0
2018-May-17 07:30N 30°04' W 093°22'0 0.0
2018-May-17 07:01N 30°04' W 093°22'0 0.0
2018-May-17 06:30N 30°04' W 093°22'0 0.0
2018-May-17 06:00N 30°04' W 093°22'0 0.0
2018-May-17 05:30N 30°04' W 093°22'0 0.0
2018-May-17 04:59N 30°04' W 093°22'0 0.0
2018-May-17 04:31N 30°04' W 093°22'0 0.0
2018-May-17 04:01N 30°04' W 093°22'0 0.0
2018-May-17 03:30N 30°04' W 093°22'0 0.0
2018-May-17 03:00N 30°04' W 093°22'0 0.0
2018-May-17 02:30N 30°04' W 093°22'0 0.0
2018-May-17 02:00N 30°04' W 093°22'0 0.0
2018-May-17 01:31N 30°04' W 093°22'0 0.0
2018-May-17 01:01N 30°04' W 093°22'0 0.0
2018-May-17 00:30N 30°04' W 093°22'0 0.0
2018-May-17 00:00N 30°04' W 093°22'0 0.0
2018-May-16 23:31N 30°04' W 093°22'1 1.1
2018-May-16 23:00N 30°04' W 093°21'1 1.1
2018-May-16 22:31N 30°04' W 093°22'0 0.0
2018-May-16 22:00N 30°04' W 093°22'0 0.0
2018-May-16 21:31N 30°04' W 093°22'0 0.0
2018-May-16 21:01N 30°04' W 093°22'0 0.0
2018-May-16 20:31N 30°04' W 093°22'0 0.0
2018-May-16 20:01N 30°04' W 093°22'0 0.0
2018-May-16 19:31N 30°04' W 093°22'0 0.0
2018-May-16 19:00N 30°04' W 093°22'0 0.0
2018-May-16 18:31N 30°04' W 093°22'0 1.0
2018-May-16 18:01N 30°04' W 093°21'0 0.0
2018-May-16 17:30N 30°04' W 093°21'0 1.0
2018-May-16 17:01N 30°04' W 093°22'0 0.0
2018-May-16 16:30N 30°04' W 093°22'0 0.0
2018-May-16 16:00N 30°04' W 093°22'0 0.0
2018-May-16 15:30N 30°04' W 093°22'0 0.0
2018-May-16 15:00N 30°04' W 093°22'0 0.0
2018-May-16 14:31N 30°04' W 093°22'0 0.0
2018-May-16 14:00N 30°04' W 093°22'0 0.0
2018-May-16 13:30N 30°04' W 093°22'0 0.0
2018-May-16 13:00N 30°04' W 093°22'0 0.0
2018-May-16 12:30N 30°04' W 093°22'0 0.0
2018-May-16 12:00N 30°04' W 093°22'0 0.0
2018-May-16 11:30N 30°04' W 093°22'0 0.0
2018-May-16 11:00N 30°04' W 093°22'0 0.0
2018-May-16 10:31N 30°04' W 093°22'0 0.0
2018-May-16 10:00N 30°04' W 093°22'0 0.0
2018-May-16 09:30N 30°04' W 093°22'0 0.0
2018-May-16 09:00N 30°04' W 093°22'0 0.0
2018-May-16 08:30N 30°04' W 093°22'0 0.0
2018-May-16 08:00N 30°04' W 093°22'0 0.0
2018-May-16 07:30N 30°04' W 093°22'0 0.0
2018-May-16 07:00N 30°04' W 093°22'0 0.0
2018-May-16 06:30N 30°04' W 093°22'0 0.0
2018-May-16 06:00N 30°04' W 093°22'0 0.0
2018-May-16 05:30N 30°04' W 093°22'0 0.0
2018-May-16 04:58N 30°04' W 093°22'0 0.0
2018-May-16 04:30N 30°04' W 093°22'0 0.0
2018-May-16 04:00N 30°04' W 093°22'0 0.0
2018-May-16 03:30N 30°04' W 093°22'0 0.0
2018-May-16 03:01N 30°04' W 093°22'0 0.0
2018-May-16 02:30N 30°04' W 093°22'0 0.0
2018-May-16 02:00N 30°04' W 093°22'0 0.0
2018-May-16 01:30N 30°04' W 093°22'0 0.0
2018-May-16 00:58N 30°04' W 093°22'0 0.0
2018-May-16 00:30N 30°04' W 093°22'0 0.0
2018-May-16 00:00N 30°04' W 093°22'0 0.0
2018-May-15 23:30N 30°04' W 093°22'0 0.0
2018-May-15 22:59N 30°04' W 093°22'0 0.0
2018-May-15 22:30N 30°04' W 093°22'0 0.0
2018-May-15 22:00N 30°04' W 093°22'0 0.0
2018-May-15 21:30N 30°04' W 093°22'0 0.0
2018-May-15 21:00N 30°04' W 093°22'0 0.0
2018-May-15 20:30N 30°04' W 093°22'0 0.0
2018-May-15 20:00N 30°04' W 093°22'0 0.0
2018-May-15 19:30N 30°04' W 093°22'0 0.0
2018-May-15 19:00N 30°04' W 093°22'0 0.0
2018-May-15 18:30N 30°04' W 093°22'0 0.0
2018-May-15 18:00N 30°04' W 093°22'0 0.0
2018-May-15 17:30N 30°04' W 093°22'0 0.0
2018-May-15 17:00N 30°04' W 093°22'0 0.0
2018-May-15 16:30N 30°04' W 093°22'0 0.0
2018-May-15 16:00N 30°04' W 093°22'0 0.0
2018-May-15 15:30N 30°04' W 093°22'0 0.0
2018-May-15 15:00N 30°04' W 093°22'0 1.0
2018-May-15 14:30N 30°04' W 093°21'0 1.0
2018-May-15 14:00N 30°04' W 093°22'0 0.0
2018-May-15 13:30N 30°04' W 093°22'0 0.0
2018-May-15 13:00N 30°04' W 093°22'0 0.0
2018-May-15 12:30N 30°04' W 093°22'0 0.0
2018-May-15 12:00N 30°04' W 093°22'0 0.0
2018-May-15 11:30N 30°04' W 093°22'0 0.0
2018-May-15 11:00N 30°04' W 093°22'0 0.0
2018-May-15 10:30N 30°04' W 093°22'0 0.0
2018-May-15 10:00N 30°04' W 093°22'0 0.0
2018-May-15 09:30N 30°04' W 093°22'0 0.0
2018-May-15 09:00N 30°04' W 093°22'0 0.0
2018-May-15 08:30N 30°04' W 093°22'0 0.0
2018-May-15 08:00N 30°04' W 093°22'0 0.0
2018-May-15 07:30N 30°04' W 093°22'0 0.0
2018-May-15 07:00N 30°04' W 093°22'0 0.0
2018-May-15 06:30N 30°04' W 093°22'0 0.0
2018-May-15 06:00N 30°04' W 093°22'0 0.0
2018-May-15 05:30N 30°04' W 093°22'0 0.0
2018-May-15 05:00N 30°04' W 093°22'0 0.0
2018-May-15 04:30N 30°04' W 093°22'0 0.0
2018-May-15 04:00N 30°04' W 093°22'0 0.0
2018-May-15 03:30N 30°04' W 093°22'0 0.0
2018-May-15 03:00N 30°04' W 093°22'0 0.0
2018-May-15 02:30N 30°04' W 093°22'0 0.0
2018-May-15 02:00N 30°04' W 093°22'0 0.0
2018-May-15 01:30N 30°04' W 093°22'0 0.0
2018-May-15 01:00N 30°04' W 093°22'0 0.0
2018-May-15 00:30N 30°04' W 093°22'0 0.0
2018-May-15 00:00N 30°04' W 093°22'0 0.0
2018-May-14 23:30N 30°04' W 093°22'0 1.0
2018-May-14 23:00N 30°04' W 093°21'0 0.0
2018-May-14 22:30N 30°04' W 093°21'0 0.0
2018-May-14 22:00N 30°04' W 093°21'0 0.0
2018-May-14 21:30N 30°04' W 093°21'0 0.0
2018-May-14 21:00N 30°04' W 093°21'0 0.6
2018-May-14 20:30N 30°04' W 093°22'0 0.4
2018-May-14 20:00N 30°04' W 093°22'0 0.0
2018-May-14 19:30N 30°04' W 093°22'0 0.0
2018-May-14 19:00N 30°04' W 093°22'0 0.0
2018-May-14 18:30N 30°04' W 093°22'0 0.0
2018-May-14 18:00N 30°04' W 093°22'  

Dump ship's entire track history